createdAt,value
2018-08-11T00:00:12.501Z,101422.18
2018-08-11T00:02:40.528Z,101424.47
2018-08-11T00:05:08.557Z,101418.61
2018-08-11T00:07:36.866Z,101422.18
2018-08-11T00:10:06.803Z,101424.31
2018-08-11T00:12:35.068Z,101437.23
2018-08-11T00:15:03.104Z,101449.81
2018-08-11T00:17:31.156Z,101444.02
2018-08-11T00:19:59.397Z,101439.02
2018-08-11T00:22:27.425Z,101439.53
2018-08-11T00:24:55.501Z,101433.13
2018-08-11T00:27:27.265Z,101438.83
2018-08-11T00:29:55.301Z,101448.83
2018-08-11T00:32:23.355Z,101444.53
2018-08-11T00:34:51.379Z,101444.03
2018-08-11T00:37:19.426Z,101456.00
2018-08-11T00:39:47.467Z,101446.45
2018-08-11T00:42:15.486Z,101443.55
2018-08-11T00:44:43.534Z,101440.19
2018-08-11T00:47:11.549Z,101441.50
2018-08-11T00:49:39.582Z,101439.93
2018-08-11T00:52:07.602Z,101416.87
2018-08-11T00:54:35.625Z,101406.51
2018-08-11T00:57:03.887Z,101423.59
2018-08-11T00:59:31.920Z,101411.53
2018-08-11T01:01:59.953Z,101391.23
2018-08-11T01:04:27.981Z,101383.23
2018-08-11T01:06:56.036Z,101378.73
2018-08-11T01:09:24.049Z,101372.91
2018-08-11T01:11:52.232Z,101377.52
2018-08-11T01:14:20.248Z,101366.66
2018-08-11T01:16:48.281Z,101378.40
2018-08-11T01:19:16.573Z,101370.16
2018-08-11T01:21:44.597Z,101372.66
2018-08-11T01:24:12.647Z,101367.59
2018-08-11T01:26:40.824Z,101363.66
2018-08-11T01:29:08.876Z,101361.49
2018-08-11T01:31:36.898Z,101360.53
2018-08-11T01:34:04.933Z,101390.41
2018-08-11T01:36:32.950Z,101398.14
2018-08-11T01:39:00.976Z,101393.80
2018-08-11T01:41:29.032Z,101399.41
2018-08-11T01:43:57.056Z,101394.21
2018-08-11T01:46:25.091Z,101403.88
2018-08-11T01:48:53.117Z,101399.20
2018-08-11T01:51:21.152Z,101389.54
2018-08-11T01:53:55.703Z,101397.42
2018-08-11T01:56:23.804Z,101393.86
2018-08-11T01:58:51.828Z,101384.75
2018-08-11T02:01:19.880Z,101381.91
2018-08-11T02:03:47.909Z,101386.00
2018-08-11T02:06:15.945Z,101387.91
2018-08-11T02:08:43.978Z,101392.43
2018-08-11T02:11:12.061Z,101392.11
2018-08-11T02:13:40.041Z,101379.28
2018-08-11T02:16:08.063Z,101384.13
2018-08-11T02:18:36.097Z,101382.36
2018-08-11T02:21:04.782Z,101386.44
2018-08-11T02:23:32.812Z,101384.66
2018-08-11T02:26:01.009Z,101399.70
2018-08-11T02:28:29.060Z,101396.81
2018-08-11T02:30:57.086Z,101391.09
2018-08-11T02:33:25.104Z,101387.00
2018-08-11T02:35:53.121Z,101390.15
2018-08-11T02:38:21.140Z,101395.69
2018-08-11T02:40:49.158Z,101397.50
2018-08-11T02:43:17.345Z,101405.38
2018-08-11T02:45:45.368Z,101395.66
2018-08-11T02:48:13.392Z,101400.60
2018-08-11T02:50:41.431Z,101405.44
2018-08-11T02:53:09.450Z,101404.59
2018-08-11T02:55:37.497Z,101405.36
2018-08-11T02:58:05.782Z,101407.17
2018-08-11T03:00:33.817Z,101404.28
2018-08-11T03:03:01.848Z,101404.47
2018-08-11T03:05:29.879Z,101406.94
2018-08-11T03:07:57.904Z,101410.15
2018-08-11T03:10:26.064Z,101402.84
2018-08-11T03:12:54.103Z,101412.27
2018-08-11T03:15:22.129Z,101399.33
2018-08-11T03:17:50.162Z,101411.53
2018-08-11T03:20:18.340Z,101410.91
2018-08-11T03:22:53.025Z,101417.09
2018-08-11T03:25:21.050Z,101417.97
2018-08-11T03:27:49.080Z,101419.69
2018-08-11T03:30:17.084Z,101420.02
2018-08-11T03:32:45.268Z,101417.13
2018-08-11T03:35:13.285Z,101428.39
2018-08-11T03:37:41.303Z,101426.61
2018-08-11T03:40:10.365Z,101428.61
2018-08-11T03:42:38.437Z,101432.38
2018-08-11T03:45:06.582Z,101432.84
2018-08-11T03:47:34.768Z,101439.98
2018-08-11T03:50:02.785Z,101444.38
2018-08-11T03:52:30.851Z,101442.14
2018-08-11T03:54:58.829Z,101435.58
2018-08-11T03:57:26.856Z,101440.44
2018-08-11T03:59:54.880Z,101441.59
2018-08-11T04:02:22.913Z,101442.73
2018-08-11T04:04:50.945Z,101444.15
2018-08-11T04:07:19.136Z,101449.12
2018-08-11T04:09:47.161Z,101446.72
2018-08-11T04:12:15.208Z,101451.86
2018-08-11T04:14:43.235Z,101452.98
2018-08-11T04:17:11.265Z,101444.26
2018-08-11T04:19:39.326Z,101440.95
2018-08-11T04:22:07.533Z,101453.80
2018-08-11T04:24:35.573Z,101455.60
2018-08-11T04:27:03.609Z,101462.52
2018-08-11T04:29:31.657Z,101460.74
2018-08-11T04:31:59.677Z,101462.98
2018-08-11T04:34:27.707Z,101469.65
2018-08-11T04:36:55.752Z,101469.02
2018-08-11T04:39:23.804Z,101475.57
2018-08-11T04:41:51.863Z,101482.66
2018-08-11T04:44:19.859Z,101483.89
2018-08-11T04:46:47.891Z,101479.28
2018-08-11T04:49:15.924Z,101491.83
2018-08-11T04:51:44.312Z,101489.95
2018-08-11T04:54:12.370Z,101492.46
2018-08-11T04:56:40.400Z,101488.80
2018-08-11T04:59:08.416Z,101484.65
2018-08-11T05:01:36.466Z,101487.38
2018-08-11T05:04:04.589Z,101485.33
2018-08-11T05:06:32.628Z,101493.09
2018-08-11T05:09:00.686Z,101504.91
2018-08-11T05:11:28.733Z,101507.34
2018-08-11T05:13:56.753Z,101501.70
2018-08-11T05:16:24.772Z,101503.19
2018-08-11T05:18:52.799Z,101512.38
2018-08-11T05:21:20.823Z,101510.25
2018-08-11T05:23:48.851Z,101505.35
2018-08-11T05:26:17.075Z,101507.87
2018-08-11T05:28:45.092Z,101511.98
2018-08-11T05:31:13.158Z,101505.24
2018-08-11T05:33:41.194Z,101510.88
2018-08-11T05:36:09.232Z,101506.54
2018-08-11T05:38:37.301Z,101513.38
2018-08-11T05:41:05.357Z,101513.44
2018-08-11T05:43:33.403Z,101512.42
2018-08-11T05:46:01.443Z,101518.69
2018-08-11T05:48:29.507Z,101522.52
2018-08-11T05:50:57.531Z,101523.81
2018-08-11T05:53:25.567Z,101521.54
2018-08-11T05:55:53.632Z,101527.42
2018-08-11T05:58:21.670Z,101532.37
2018-08-11T06:00:49.704Z,101543.89
2018-08-11T06:03:17.788Z,101539.38
2018-08-11T06:05:45.820Z,101536.91
2018-08-11T06:08:13.844Z,101545.23
2018-08-11T06:10:41.866Z,101545.48
2018-08-11T06:13:09.885Z,101543.95
2018-08-11T06:15:37.949Z,101546.16
2018-08-11T06:18:06.131Z,101551.38
2018-08-11T06:20:34.187Z,101547.95
2018-08-11T06:23:02.211Z,101547.91
2018-08-11T06:25:30.498Z,101546.99
2018-08-11T06:27:58.518Z,101552.52
2018-08-11T06:30:26.557Z,101549.27
2018-08-11T06:32:54.581Z,101552.88
2018-08-11T06:35:22.621Z,101536.20
2018-08-11T06:37:50.669Z,101545.86
2018-08-11T06:40:18.712Z,101556.48
2018-08-11T06:42:46.742Z,101562.86
2018-08-11T06:45:14.926Z,101555.76
2018-08-11T06:47:42.950Z,101559.13
2018-08-11T06:50:10.992Z,101559.15
2018-08-11T06:52:39.024Z,101565.66
2018-08-11T06:55:07.188Z,101570.55
2018-08-11T06:57:35.231Z,101575.78
2018-08-11T07:00:03.404Z,101577.98
2018-08-11T07:02:31.445Z,101575.87
2018-08-11T07:04:59.474Z,101577.38
2018-08-11T07:07:27.501Z,101579.45
2018-08-11T07:09:55.534Z,101574.56
2018-08-11T07:12:23.559Z,101574.33
2018-08-11T07:14:51.577Z,101589.70
2018-08-11T07:17:19.852Z,101586.33
2018-08-11T07:19:48.517Z,101583.20
2018-08-11T07:22:16.705Z,101586.80
2018-08-11T07:24:44.750Z,101590.05
2018-08-11T07:27:12.865Z,101588.25
2018-08-11T07:29:41.022Z,101600.12
2018-08-11T07:32:09.061Z,101594.47
2018-08-11T07:34:37.096Z,101602.96
2018-08-11T07:37:05.384Z,101601.36
2018-08-11T07:39:33.410Z,101610.35
2018-08-11T07:42:01.439Z,101604.54
2018-08-11T07:44:29.748Z,101605.42
2018-08-11T07:46:57.772Z,101608.47
2018-08-11T07:49:26.113Z,101616.70
2018-08-11T07:51:54.148Z,101610.27
2018-08-11T07:54:22.212Z,101613.77
2018-08-11T07:56:50.248Z,101622.07
2018-08-11T07:59:18.401Z,101612.28
2018-08-11T08:01:46.417Z,101618.20
2018-08-11T08:04:14.455Z,101623.56
2018-08-11T08:06:42.485Z,101624.61
2018-08-11T08:09:12.412Z,101626.58
2018-08-11T08:11:41.101Z,101627.20
2018-08-11T08:14:09.377Z,101632.95
2018-08-11T08:16:37.384Z,101623.70
2018-08-11T08:19:05.613Z,101628.02
2018-08-11T08:21:33.787Z,101625.80
2018-08-11T08:24:01.821Z,101623.98
2018-08-11T08:26:29.974Z,101621.94
2018-08-11T08:28:57.882Z,101623.26
2018-08-11T08:31:26.105Z,101624.19
2018-08-11T08:33:54.140Z,101621.06
2018-08-11T08:36:22.168Z,101629.27
2018-08-11T08:38:50.188Z,101630.33
2018-08-11T08:41:18.677Z,101637.18
2018-08-11T08:43:46.701Z,101631.59
2018-08-11T08:46:14.836Z,101628.30
2018-08-11T08:48:42.872Z,101633.25
2018-08-11T08:51:10.976Z,101633.81
2018-08-11T08:53:39.004Z,101634.59
2018-08-11T08:56:07.124Z,101641.23
2018-08-11T08:58:35.139Z,101640.09
2018-08-11T09:01:03.148Z,101644.09
2018-08-11T09:03:31.175Z,101641.37
2018-08-11T09:05:59.200Z,101642.67
2018-08-11T09:08:27.240Z,101640.72
2018-08-11T09:10:55.265Z,101645.40
2018-08-11T09:13:23.307Z,101644.02
2018-08-11T09:15:51.353Z,101655.25
2018-08-11T09:18:19.745Z,101657.35
2018-08-11T09:20:47.776Z,101653.91
2018-08-11T09:23:15.788Z,101661.66
2018-08-11T09:25:43.797Z,101653.31
2018-08-11T09:28:11.817Z,101649.27
2018-08-11T09:30:41.016Z,101662.36
2018-08-11T09:33:09.041Z,101645.75
2018-08-11T09:35:37.069Z,101645.94
2018-08-11T09:38:05.536Z,101637.81
2018-08-11T09:40:33.614Z,101654.20
2018-08-11T09:43:01.642Z,101657.27
2018-08-11T09:45:29.976Z,101663.11
2018-08-11T09:47:58.138Z,101649.00
2018-08-11T09:50:26.141Z,101653.28
2018-08-11T09:52:54.581Z,101662.42
2018-08-11T09:55:22.633Z,101680.45
2018-08-11T09:57:50.649Z,101675.84
2018-08-11T10:00:23.970Z,101668.45
2018-08-11T10:02:52.753Z,101663.44
2018-08-11T10:05:21.028Z,101667.42
2018-08-11T10:07:49.083Z,101672.61
2018-08-11T10:10:17.121Z,101669.13
2018-08-11T10:12:45.604Z,101670.99
2018-08-11T10:15:13.618Z,101681.27
2018-08-11T10:17:41.637Z,101681.34
2018-08-11T10:20:09.896Z,101676.52
2018-08-11T10:22:37.940Z,101684.56
2018-08-11T10:25:05.988Z,101670.53
2018-08-11T10:27:34.048Z,101676.74
2018-08-11T10:30:02.076Z,101671.64
2018-08-11T10:32:30.114Z,101675.98
2018-08-11T10:34:58.548Z,101668.42
2018-08-11T10:37:26.622Z,101666.45
2018-08-11T10:39:54.679Z,101675.17
2018-08-11T10:42:22.769Z,101677.52
2018-08-11T10:44:50.860Z,101672.55
2018-08-11T10:47:18.884Z,101673.31
2018-08-11T10:49:46.904Z,101662.81
2018-08-11T10:52:15.353Z,101665.54
2018-08-11T10:54:43.369Z,101660.61
2018-08-11T10:57:11.389Z,101660.40
2018-08-11T10:59:39.413Z,101661.69
2018-08-11T11:02:07.447Z,101655.47
2018-08-11T11:04:35.722Z,101663.52
2018-08-11T11:07:05.009Z,101669.56
2018-08-11T11:09:39.733Z,101676.80
2018-08-11T11:12:14.452Z,101672.58
2018-08-11T11:14:42.466Z,101659.94
2018-08-11T11:17:10.488Z,101659.34
2018-08-11T11:19:38.522Z,101668.17
2018-08-11T11:22:06.863Z,101666.56
2018-08-11T11:24:35.042Z,101666.63
2018-08-11T11:27:03.064Z,101671.53
2018-08-11T11:29:31.101Z,101667.27
2018-08-11T11:31:59.135Z,101667.55
2018-08-11T11:34:27.149Z,101670.08
2018-08-11T11:36:55.212Z,101672.28
2018-08-11T11:39:23.230Z,101668.36
2018-08-11T11:41:51.249Z,101669.11
2018-08-11T11:44:19.593Z,101672.13
2018-08-11T11:46:47.609Z,101671.41
2018-08-11T11:49:15.644Z,101662.55
2018-08-11T11:51:43.658Z,101667.44
2018-08-11T11:54:11.678Z,101663.80
2018-08-11T11:56:39.717Z,101667.03
2018-08-11T11:59:09.024Z,101664.98
2018-08-11T12:01:37.057Z,101659.66
2018-08-11T12:04:05.072Z,101658.39
2018-08-11T12:06:33.180Z,101652.84
2018-08-11T12:09:01.508Z,101668.53
2018-08-11T12:11:29.617Z,101667.44
2018-08-11T12:13:57.976Z,101668.66
2018-08-11T12:16:25.989Z,101665.41
2018-08-11T12:18:54.309Z,101665.86
2018-08-11T12:21:22.361Z,101658.20
2018-08-11T12:23:50.380Z,101661.95
2018-08-11T12:26:18.400Z,101660.66
2018-08-11T12:28:46.444Z,101650.97
2018-08-11T12:31:14.527Z,101660.52
2018-08-11T12:33:42.857Z,101657.47
2018-08-11T12:36:10.876Z,101658.33
2018-08-11T12:38:38.899Z,101662.39
2018-08-11T12:41:06.948Z,101656.70
2018-08-11T12:43:34.973Z,101662.16
2018-08-11T12:46:02.981Z,101642.19
2018-08-11T12:48:31.280Z,101649.27
2018-08-11T12:50:59.313Z,101645.72
2018-08-11T12:53:27.485Z,101640.77
2018-08-11T12:55:55.469Z,101644.56
2018-08-11T12:58:23.493Z,101641.81
2018-08-11T13:00:51.531Z,101640.40
2018-08-11T13:03:19.555Z,101648.92
2018-08-11T13:05:47.594Z,101645.67
2018-08-11T13:08:15.634Z,101641.75
2018-08-11T13:10:43.665Z,101646.75
2018-08-11T13:13:11.701Z,101649.72
2018-08-11T13:15:39.940Z,101649.44
2018-08-11T13:18:07.953Z,101655.21
2018-08-11T13:20:36.234Z,101659.85
2018-08-11T13:23:04.909Z,101655.70
2018-08-11T13:25:32.945Z,101656.55
2018-08-11T13:28:00.984Z,101651.55
2018-08-11T13:30:29.033Z,101642.59
2018-08-11T13:32:57.188Z,101641.77
2018-08-11T13:35:25.233Z,101645.28
2018-08-11T13:37:53.323Z,101652.97
2018-08-11T13:40:21.353Z,101648.03
2018-08-11T13:42:49.377Z,101646.77
2018-08-11T13:45:17.564Z,101641.48
2018-08-11T13:47:45.793Z,101654.15
2018-08-11T13:50:13.801Z,101657.63
2018-08-11T13:52:41.862Z,101650.60
2018-08-11T13:55:10.127Z,101649.83
2018-08-11T13:57:38.181Z,101641.56
2018-08-11T14:00:07.380Z,101655.88
2018-08-11T14:02:35.422Z,101665.02
2018-08-11T14:05:03.655Z,101660.73
2018-08-11T14:07:31.727Z,101665.09
2018-08-11T14:09:59.702Z,101658.23
2018-08-11T14:12:28.044Z,101648.82
2018-08-11T14:14:56.284Z,101659.31
2018-08-11T14:17:24.257Z,101655.72
2018-08-11T14:19:52.271Z,101652.68
2018-08-11T14:22:20.308Z,101659.98
2018-08-11T14:24:48.340Z,101659.92
2018-08-11T14:27:16.368Z,101652.30
2018-08-11T14:32:37.125Z,101652.62
2018-08-11T14:35:05.365Z,101651.12
2018-08-11T14:37:43.472Z,101664.02
2018-08-11T14:40:11.508Z,101659.22
2018-08-11T14:42:39.577Z,101649.36
2018-08-11T14:45:09.069Z,101648.95
2018-08-11T14:47:37.100Z,101657.36
2018-08-11T14:50:05.703Z,101655.80
2018-08-11T14:52:33.726Z,101650.39
2018-08-11T14:55:01.753Z,101648.64
2018-08-11T14:57:29.781Z,101655.69
2018-08-11T14:59:57.817Z,101655.37
2018-08-11T15:02:25.850Z,101658.62
2018-08-11T15:04:53.876Z,101658.18
2018-08-11T15:07:21.903Z,101653.30
2018-08-11T15:09:50.016Z,101650.80
2018-08-11T15:12:24.265Z,101646.33
2018-08-11T15:14:56.930Z,101637.59
2018-08-11T15:17:25.273Z,101643.23
2018-08-11T15:19:53.293Z,101651.22
2018-08-11T15:25:14.337Z,101647.70
2018-08-11T15:27:42.516Z,101643.92
2018-08-11T15:30:11.794Z,101650.70
2018-08-11T15:32:40.825Z,101642.79
2018-08-11T15:35:09.547Z,101648.60
2018-08-11T15:37:37.592Z,101651.59
2018-08-11T15:51:49.725Z,101643.25
2018-08-11T15:54:17.855Z,101648.81
2018-08-11T15:56:45.768Z,101649.98
2018-08-11T15:59:13.796Z,101649.08
2018-08-11T16:01:41.821Z,101644.24
2018-08-11T16:04:09.854Z,101648.20
2018-08-11T16:06:37.899Z,101642.91
2018-08-11T16:09:08.200Z,101647.42
2018-08-11T16:11:36.401Z,101661.19
2018-08-11T16:14:05.732Z,101653.72
2018-08-11T16:16:33.746Z,101646.14
2018-08-11T16:19:01.917Z,101651.56
2018-08-11T16:21:29.954Z,101646.14
2018-08-11T16:23:58.790Z,101648.52
2018-08-11T16:26:26.821Z,101650.89
2018-08-11T16:28:54.851Z,101653.10
2018-08-11T16:31:23.069Z,101661.02
2018-08-11T16:33:51.089Z,101656.59
2018-08-11T16:36:19.108Z,101658.45
2018-08-11T16:38:47.144Z,101661.95
2018-08-11T16:41:15.173Z,101654.17
2018-08-11T16:43:43.349Z,101649.02
2018-08-11T16:46:11.374Z,101656.34
2018-08-11T16:48:39.397Z,101656.27
2018-08-11T16:51:07.438Z,101658.70
2018-08-11T16:53:35.475Z,101660.35
2018-08-11T16:56:03.858Z,101660.58
2018-08-11T16:58:31.938Z,101664.81
2018-08-11T17:01:00.007Z,101661.09
2018-08-11T17:03:28.184Z,101658.55
2018-08-11T17:05:56.276Z,101661.00
2018-08-11T17:08:24.233Z,101670.63
2018-08-11T17:10:52.281Z,101667.97
2018-08-11T17:13:20.380Z,101658.02
2018-08-11T17:15:48.409Z,101660.41
2018-08-11T17:18:16.445Z,101652.70
2018-08-11T17:20:44.922Z,101648.14
2018-08-11T17:23:12.957Z,101645.11
2018-08-11T17:25:40.987Z,101644.27
2018-08-11T17:28:09.235Z,101648.45
2018-08-11T17:30:44.237Z,101647.56
2018-08-11T17:33:12.261Z,101642.48
2018-08-11T17:35:40.293Z,101644.73
2018-08-11T17:38:08.337Z,101640.28
2018-08-11T17:40:36.389Z,101639.31
2018-08-11T17:43:04.770Z,101637.72
2018-08-11T17:45:32.814Z,101638.69
2018-08-11T17:48:00.859Z,101637.51
2018-08-11T17:50:29.114Z,101636.66
2018-08-11T17:52:57.129Z,101641.92
2018-08-11T17:55:25.251Z,101639.16
2018-08-11T17:57:53.481Z,101642.17
2018-08-11T18:00:21.663Z,101642.59
2018-08-11T18:02:49.737Z,101646.38
2018-08-11T18:05:17.757Z,101637.41
2018-08-11T18:07:45.944Z,101644.80
2018-08-11T18:10:13.998Z,101640.91
2018-08-11T18:12:42.072Z,101635.11
2018-08-11T18:15:10.104Z,101636.38
2018-08-11T18:17:38.148Z,101634.56
2018-08-11T18:20:06.200Z,101637.85
2018-08-11T18:22:34.252Z,101639.81
2018-08-11T18:25:02.444Z,101636.25
2018-08-11T18:27:30.510Z,101639.10
2018-08-11T18:29:58.529Z,101645.67
2018-08-11T18:32:26.721Z,101644.64
2018-08-11T18:34:54.758Z,101644.20
2018-08-11T18:37:22.785Z,101642.73
2018-08-11T18:39:50.809Z,101643.44
2018-08-11T18:42:19.001Z,101656.23
2018-08-11T18:44:47.028Z,101651.95
2018-08-11T18:47:15.063Z,101656.00
2018-08-11T18:49:43.100Z,101647.45
2018-08-11T18:52:11.866Z,101653.64
2018-08-11T18:54:39.866Z,101649.22
2018-08-11T18:57:07.930Z,101650.70
2018-08-11T18:59:35.945Z,101649.91
2018-08-11T19:02:04.941Z,101649.69
2018-08-11T19:04:33.112Z,101649.84
2018-08-11T19:07:01.134Z,101653.11
2018-08-11T19:09:29.164Z,101652.69
2018-08-11T19:11:57.210Z,101657.69
2018-08-11T19:14:25.391Z,101660.03
2018-08-11T19:16:53.413Z,101664.53
2018-08-11T19:19:21.433Z,101671.69
2018-08-11T19:21:49.464Z,101670.56
2018-08-11T19:24:17.489Z,101665.42
2018-08-11T19:26:45.733Z,101670.92
2018-08-11T19:29:13.773Z,101671.07
2018-08-11T19:31:41.837Z,101672.55
2018-08-11T19:34:10.042Z,101668.73
2018-08-11T19:36:38.320Z,101668.91
2018-08-11T19:39:08.117Z,101663.77
2018-08-11T19:41:36.171Z,101672.59
2018-08-11T19:44:04.520Z,101664.71
2018-08-11T19:46:32.770Z,101672.82
2018-08-11T19:49:00.761Z,101671.77
2018-08-11T19:51:29.073Z,101669.30
2018-08-11T19:53:57.096Z,101669.91
2018-08-11T19:56:25.305Z,101662.27
2018-08-11T19:58:53.368Z,101667.22
2018-08-11T20:01:21.684Z,101667.69
2018-08-11T20:03:49.854Z,101666.52
2018-08-11T20:06:17.855Z,101662.44
2018-08-11T20:08:46.041Z,101665.84
2018-08-11T20:11:14.370Z,101665.85
2018-08-11T20:13:42.461Z,101669.72
2018-08-11T20:16:10.499Z,101664.67
2018-08-11T20:18:38.546Z,101670.82
2018-08-11T20:21:06.953Z,101673.95
2018-08-11T20:23:34.989Z,101669.15
2018-08-11T20:26:03.180Z,101661.70
2018-08-11T20:28:31.330Z,101665.87
2018-08-11T20:30:59.368Z,101672.47
2018-08-11T20:33:27.419Z,101665.50
2018-08-11T20:35:55.437Z,101666.10
2018-08-11T20:38:23.765Z,101662.74
2018-08-11T20:40:51.817Z,101664.28
2018-08-11T20:43:19.926Z,101664.27
2018-08-11T20:45:48.064Z,101664.48
2018-08-11T20:48:16.094Z,101665.42
2018-08-11T20:50:44.121Z,101658.82
2018-08-11T20:53:12.214Z,101654.35
2018-08-11T20:55:40.818Z,101651.11
2018-08-11T20:58:08.957Z,101648.81
2018-08-11T21:00:37.119Z,101647.87
2018-08-11T21:03:07.268Z,101640.47
2018-08-11T21:05:35.316Z,101642.75
2018-08-11T21:08:03.404Z,101642.23
2018-08-11T21:10:31.450Z,101638.85
2018-08-11T21:12:59.489Z,101633.45
2018-08-11T21:15:27.629Z,101631.13
2018-08-11T21:17:55.574Z,101634.55
2018-08-11T21:20:23.600Z,101640.06
2018-08-11T21:22:51.630Z,101637.41
2018-08-11T21:25:20.023Z,101638.20
2018-08-11T21:27:48.065Z,101636.27
2018-08-11T21:30:16.124Z,101641.13
2018-08-11T21:32:44.164Z,101635.95
2018-08-11T21:35:12.212Z,101636.39
2018-08-11T21:37:40.263Z,101630.72
2018-08-11T21:40:10.854Z,101634.98
2018-08-11T21:42:39.156Z,101623.95
2018-08-11T21:45:07.437Z,101629.08
2018-08-11T21:47:35.482Z,101625.06
2018-08-11T21:50:03.562Z,101627.54
2018-08-11T21:52:31.672Z,101625.11
2018-08-11T21:54:59.801Z,101628.70
2018-08-11T21:57:27.898Z,101628.91
2018-08-11T21:59:56.125Z,101620.27
2018-08-11T22:02:24.337Z,101617.76
2018-08-11T22:04:52.408Z,101611.65
2018-08-11T22:07:20.800Z,101613.55
2018-08-11T22:09:48.813Z,101614.51
2018-08-11T22:12:16.849Z,101616.41
2018-08-11T22:14:44.901Z,101615.98
2018-08-11T22:17:12.932Z,101610.77
2018-08-11T22:19:41.184Z,101607.98
2018-08-11T22:22:09.215Z,101612.27
2018-08-11T22:24:37.317Z,101607.20
2018-08-11T22:27:05.692Z,101603.22
2018-08-11T22:29:33.757Z,101605.30
2018-08-11T22:32:01.802Z,101601.31
2018-08-11T22:34:29.826Z,101600.30
2018-08-11T22:36:58.152Z,101598.25
2018-08-11T22:39:26.186Z,101598.75
2018-08-11T22:41:54.212Z,101593.11
2018-08-11T22:44:22.251Z,101589.44
2018-08-11T22:46:50.539Z,101592.42
2018-08-11T22:49:18.572Z,101585.38
2018-08-11T22:51:46.601Z,101584.06
2018-08-11T22:54:14.648Z,101575.33
2018-08-11T22:56:42.657Z,101574.24
2018-08-11T22:59:10.671Z,101576.18
2018-08-11T23:01:38.733Z,101567.95
2018-08-11T23:04:06.773Z,101567.56
2018-08-11T23:06:34.801Z,101561.95
2018-08-11T23:09:02.883Z,101565.05
2018-08-11T23:11:30.973Z,101556.89
2018-08-11T23:13:59.025Z,101556.15
2018-08-11T23:16:27.065Z,101561.98
2018-08-11T23:18:55.093Z,101559.47
2018-08-11T23:21:23.128Z,101557.03
2018-08-11T23:23:51.304Z,101560.16
2018-08-11T23:26:19.317Z,101551.89
2018-08-11T23:28:47.336Z,101554.75
2018-08-11T23:31:15.376Z,101552.70
2018-08-11T23:33:43.396Z,101541.80
2018-08-11T23:36:11.420Z,101548.48
2018-08-11T23:38:39.469Z,101548.59
2018-08-11T23:41:07.528Z,101547.94
2018-08-11T23:43:35.567Z,101537.77
2018-08-11T23:46:03.593Z,101535.13
2018-08-11T23:48:31.623Z,101523.50
2018-08-11T23:50:59.640Z,101526.62
2018-08-11T23:53:27.665Z,101523.27
2018-08-11T23:55:55.706Z,101531.19
2018-08-11T23:58:23.754Z,101526.62
